createdAt,value
2023-02-22T00:01:23.089Z,7.58
2023-02-22T00:03:52.806Z,7.56
2023-02-22T00:06:25.030Z,7.56
2023-02-22T00:08:53.924Z,7.55
2023-02-22T00:11:23.038Z,7.55
2023-02-22T00:13:51.776Z,7.55
2023-02-22T04:57:43.311Z,7.63
2023-02-22T05:00:17.500Z,7.62
2023-02-22T05:02:46.063Z,7.62
2023-02-22T05:05:15.996Z,7.60
2023-02-22T05:07:45.332Z,7.59
2023-02-22T05:10:13.102Z,7.57
2023-02-22T05:12:41.126Z,7.57
2023-02-22T05:15:10.690Z,7.58
2023-02-22T05:17:38.465Z,7.58
2023-02-22T05:20:08.565Z,7.57
2023-02-22T05:22:36.653Z,7.57
2023-02-22T05:25:06.448Z,7.56
2023-02-22T05:27:34.197Z,7.56
2023-02-22T05:30:01.972Z,7.56
2023-02-22T05:32:29.707Z,7.56
2023-02-22T05:34:57.544Z,7.55
2023-02-22T05:37:25.471Z,7.55
2023-02-22T05:39:53.214Z,7.56
2023-02-22T05:42:23.474Z,7.55
2023-02-22T05:44:51.284Z,7.55
2023-02-22T05:47:19.051Z,7.55
2023-02-22T05:49:46.808Z,7.56
2023-02-22T05:52:15.061Z,7.55
2023-02-22T05:54:42.827Z,7.56
2023-02-22T05:57:10.681Z,7.55
2023-02-22T05:59:39.758Z,7.55
2023-02-22T06:02:08.528Z,7.55
2023-02-22T06:04:36.359Z,7.57
2023-02-22T06:07:04.253Z,7.58
2023-02-22T06:09:31.965Z,7.57
2023-02-22T06:11:59.773Z,7.57
2023-02-22T06:14:27.613Z,7.56
2023-02-22T06:16:58.276Z,7.57
2023-02-22T06:19:26.221Z,7.57
2023-02-22T06:21:56.393Z,7.55
2023-02-22T06:24:24.594Z,7.56
2023-02-22T06:26:56.875Z,7.57
2023-02-22T06:29:24.965Z,7.56
2023-02-22T06:31:52.915Z,7.56
2023-02-22T06:34:22.841Z,7.57
2023-02-22T06:36:50.734Z,7.56
2023-02-22T06:39:19.751Z,7.58
2023-02-22T06:41:50.393Z,7.60
2023-02-22T06:44:18.209Z,7.60
2023-02-22T06:46:50.819Z,7.60
2023-02-22T06:49:19.296Z,7.59
2023-02-22T06:51:49.077Z,7.61
2023-02-22T06:54:16.915Z,7.63
2023-02-22T06:56:44.837Z,7.64
2023-02-22T06:59:12.642Z,7.64
2023-02-22T07:01:42.205Z,7.65
2023-02-22T07:04:11.544Z,7.67
2023-02-22T07:06:39.304Z,7.69
2023-02-22T07:09:08.387Z,7.71
2023-02-22T09:54:25.786Z,9.51
2023-02-22T09:57:17.177Z,9.54
2023-02-22T09:59:49.101Z,9.57
2023-02-22T10:02:25.034Z,9.62
2023-02-22T10:05:00.923Z,9.66
2023-02-22T10:07:36.983Z,9.72
2023-02-22T10:10:07.309Z,9.79
2023-02-22T10:12:44.019Z,9.90
2023-02-22T10:15:35.761Z,10.01
2023-02-22T10:18:21.602Z,10.05
2023-02-22T10:20:57.217Z,10.11
2023-02-22T10:23:33.868Z,10.17
2023-02-22T10:26:16.297Z,10.21
2023-02-22T10:28:51.712Z,10.26
2023-02-22T10:31:24.598Z,10.34
2023-02-22T10:33:57.840Z,10.41
2023-02-22T10:36:27.365Z,10.44
2023-02-22T10:38:59.347Z,10.46
2023-02-22T10:41:32.050Z,10.49
2023-02-22T10:44:00.356Z,10.52
2023-02-22T10:46:30.273Z,10.58
2023-02-22T10:49:03.388Z,10.68
2023-02-22T10:51:31.473Z,10.77
2023-02-22T10:54:15.960Z,10.86
2023-02-22T10:56:52.207Z,10.97
2023-02-22T10:59:33.340Z,11.09
2023-02-22T11:02:02.528Z,11.16
2023-02-22T11:04:46.416Z,11.19
2023-02-22T11:07:23.092Z,11.24
2023-02-22T11:09:53.861Z,11.30
2023-02-22T11:12:28.662Z,11.33
2023-02-22T11:14:57.132Z,11.37
2023-02-22T11:17:31.990Z,11.39
2023-02-22T11:20:00.870Z,11.43
2023-02-22T11:22:32.275Z,11.46
2023-02-22T11:25:03.541Z,11.51
2023-02-22T11:27:38.249Z,11.53
2023-02-22T11:30:21.870Z,11.57
2023-02-22T11:32:53.662Z,11.59
2023-02-22T11:35:35.476Z,11.66
2023-02-22T11:38:18.007Z,11.74
2023-02-22T11:40:46.322Z,11.78
2023-02-22T11:43:19.061Z,11.87
2023-02-22T11:46:03.531Z,11.94
2023-02-22T11:48:36.654Z,12.00
2023-02-22T11:51:16.985Z,12.01
2023-02-22T11:54:01.254Z,12.03
2023-02-22T11:56:38.169Z,12.12
2023-02-22T11:59:21.630Z,12.18
2023-02-22T12:01:54.990Z,12.30
2023-02-22T12:04:52.630Z,12.36
2023-02-22T12:07:38.344Z,12.39
2023-02-22T12:10:21.099Z,12.45
2023-02-22T12:12:55.798Z,12.48
2023-02-22T12:15:32.987Z,12.55
2023-02-22T12:18:08.775Z,12.63
2023-02-22T12:20:40.768Z,12.73
2023-02-22T12:23:20.144Z,12.79
2023-02-22T12:26:02.834Z,12.82
2023-02-22T12:28:36.131Z,12.88
2023-02-22T12:31:21.314Z,12.92
2023-02-22T12:33:56.447Z,12.96
2023-02-22T12:36:32.763Z,13.02
2023-02-22T12:39:07.706Z,13.08
2023-02-22T12:41:41.345Z,13.12
2023-02-22T12:44:17.351Z,13.17
2023-02-22T12:46:50.312Z,13.23
2023-02-22T12:49:25.189Z,13.30
2023-02-22T12:52:01.479Z,13.36
2023-02-22T12:54:44.226Z,13.44
2023-02-22T12:57:21.031Z,13.53
2023-02-22T12:59:52.120Z,13.64
2023-02-22T13:02:26.774Z,13.71
2023-02-22T13:04:55.182Z,13.82
2023-02-22T13:07:41.089Z,13.88
2023-02-22T13:10:32.404Z,13.90
2023-02-22T13:13:10.040Z,13.98
2023-02-22T13:15:46.839Z,14.03
2023-02-22T13:18:26.013Z,14.05
2023-02-22T13:21:00.177Z,14.07
2023-02-22T13:23:40.010Z,14.07
2023-02-22T13:26:14.334Z,14.08
2023-02-22T13:28:48.048Z,14.02
2023-02-22T13:31:46.755Z,13.96
2023-02-22T13:34:34.546Z,13.98
2023-02-22T13:37:18.643Z,13.98
2023-02-22T13:40:13.686Z,13.94
2023-02-22T13:43:03.496Z,13.89
2023-02-22T13:46:12.481Z,13.86
2023-02-22T13:49:31.350Z,13.78
2023-02-22T13:52:03.661Z,13.76
2023-02-22T13:54:42.199Z,13.74
2023-02-22T13:57:20.735Z,13.73
2023-02-22T13:59:48.648Z,13.70
2023-02-22T14:02:59.845Z,13.70
2023-02-22T14:05:38.916Z,13.69
2023-02-22T14:08:09.296Z,13.70
2023-02-22T14:10:47.589Z,13.73
2023-02-22T14:13:17.066Z,13.74
2023-02-22T14:16:18.255Z,13.71
2023-02-22T14:18:49.330Z,13.72
2023-02-22T14:21:20.406Z,13.72
2023-02-22T14:23:51.271Z,13.75
2023-02-22T14:26:26.623Z,13.75
2023-02-22T14:28:57.537Z,13.75
2023-02-22T14:31:35.956Z,13.75
2023-02-22T14:34:10.475Z,13.75
2023-02-22T14:36:45.731Z,13.74
2023-02-22T14:39:27.006Z,13.70
2023-02-22T14:42:01.506Z,13.66
2023-02-22T14:44:35.876Z,13.64
2023-02-22T14:47:07.106Z,13.64
2023-02-22T14:49:40.089Z,13.63
2023-02-22T14:52:18.488Z,13.62
2023-02-22T14:54:59.311Z,13.60
2023-02-22T14:57:38.763Z,13.57
2023-02-22T15:00:19.767Z,13.54
2023-02-22T15:02:50.450Z,13.50
2023-02-22T15:05:20.802Z,13.46
2023-02-22T15:07:54.281Z,13.42
2023-02-22T15:10:27.525Z,13.40
2023-02-22T15:13:09.144Z,13.35
2023-02-22T15:15:39.268Z,13.31
2023-02-22T15:18:18.657Z,13.25
2023-02-22T15:20:48.301Z,13.23
2023-02-22T15:23:17.224Z,13.19
2023-02-22T15:25:50.761Z,13.14
2023-02-22T15:28:19.521Z,13.11
2023-02-22T15:30:47.527Z,13.09
2023-02-22T15:33:17.969Z,13.04
2023-02-22T15:35:46.135Z,13.00
2023-02-22T15:38:28.387Z,12.96
2023-02-22T15:41:08.361Z,12.92
2023-02-22T15:43:36.155Z,12.88
2023-02-22T15:46:12.516Z,12.85
2023-02-22T15:48:41.535Z,12.82
2023-02-22T15:51:13.755Z,12.80
2023-02-22T15:53:44.668Z,12.77
2023-02-22T15:56:17.310Z,12.74
2023-02-22T15:58:48.196Z,12.69
2023-02-22T16:01:19.826Z,12.68
2023-02-22T16:03:50.941Z,12.65
2023-02-22T16:06:29.686Z,12.59
2023-02-22T16:09:00.086Z,12.54
2023-02-22T16:11:33.086Z,12.51
2023-02-22T16:14:04.742Z,12.45
2023-02-22T16:16:34.275Z,12.41
2023-02-22T16:19:27.814Z,12.36
2023-02-22T16:21:58.388Z,12.30
2023-02-22T16:24:31.380Z,12.25
2023-02-22T16:27:18.876Z,12.15
2023-02-22T16:30:07.790Z,12.05
2023-02-22T16:32:38.015Z,11.97
2023-02-22T16:35:06.287Z,11.90
2023-02-22T16:37:34.128Z,11.82
2023-02-22T16:40:01.941Z,11.73
2023-02-22T16:42:31.497Z,11.66
2023-02-22T16:44:59.702Z,11.59
2023-02-22T16:47:27.789Z,11.50
2023-02-22T16:49:57.054Z,11.45
2023-02-22T16:52:25.033Z,11.39
2023-02-22T16:54:53.072Z,11.32
2023-02-22T16:57:23.510Z,11.28
2023-02-22T16:59:53.479Z,11.26
2023-02-22T17:02:21.392Z,11.22
2023-02-22T17:04:49.623Z,11.18
2023-02-22T17:07:20.472Z,11.16
2023-02-22T17:09:48.321Z,11.13
2023-02-22T17:12:16.194Z,11.09
2023-02-22T17:14:46.848Z,11.04
2023-02-22T17:17:16.653Z,10.98
2023-02-22T17:19:44.434Z,10.92
2023-02-22T17:22:19.077Z,10.88
2023-02-22T17:24:47.505Z,10.81
2023-02-22T17:27:15.551Z,10.75
2023-02-22T17:29:44.969Z,10.70
2023-02-22T17:32:13.812Z,10.63
2023-02-22T17:34:42.930Z,10.57
2023-02-22T17:37:11.148Z,10.48
2023-02-22T17:39:39.106Z,10.41
2023-02-22T17:42:06.900Z,10.33
2023-02-22T17:44:35.286Z,10.27
2023-02-22T17:47:03.166Z,10.19
2023-02-22T17:49:31.134Z,10.15
2023-02-22T17:52:02.681Z,10.09
2023-02-22T17:54:30.590Z,10.04
2023-02-22T17:56:58.523Z,9.96
2023-02-22T17:59:26.499Z,9.91
2023-02-22T18:01:54.575Z,9.85
2023-02-22T18:04:22.475Z,9.78
2023-02-22T18:06:51.661Z,9.73
2023-02-22T18:09:20.882Z,9.68
2023-02-22T18:11:48.727Z,9.65
2023-02-22T18:14:16.529Z,9.61
2023-02-22T18:16:46.809Z,9.60
2023-02-22T18:19:20.039Z,9.57
2023-02-22T18:21:49.842Z,9.56
2023-02-22T18:24:18.461Z,9.54
2023-02-22T18:26:47.786Z,9.53
2023-02-22T18:29:15.672Z,9.51
2023-02-22T18:31:45.326Z,9.43
2023-02-22T18:34:13.476Z,9.43
2023-02-22T18:36:41.911Z,9.40
2023-02-22T18:39:13.211Z,9.37
2023-02-22T18:41:41.138Z,9.34
2023-02-22T18:44:11.111Z,9.30
2023-02-22T18:46:39.009Z,9.28
2023-02-22T18:49:06.956Z,9.24
2023-02-22T18:51:35.295Z,9.21
2023-02-22T18:54:03.120Z,9.18
2023-02-22T18:56:31.142Z,9.14
2023-02-22T18:59:01.060Z,9.10
2023-02-22T19:01:31.521Z,9.04
2023-02-22T19:03:59.366Z,9.00
2023-02-22T19:06:27.357Z,8.96
2023-02-22T19:08:55.196Z,8.96
2023-02-22T19:11:25.035Z,8.93
2023-02-22T19:13:54.580Z,8.89
2023-02-22T19:16:24.813Z,8.85
2023-02-22T19:18:57.258Z,8.82
2023-02-22T19:21:26.262Z,8.78
2023-02-22T19:24:01.363Z,8.75
2023-02-22T19:26:30.079Z,8.72
2023-02-22T19:28:59.805Z,8.71
2023-02-22T19:31:31.007Z,8.68
2023-02-22T19:34:03.640Z,8.65
2023-02-22T19:36:31.634Z,8.63
2023-02-22T19:39:01.541Z,8.62
2023-02-22T19:41:29.981Z,8.61
2023-02-22T19:43:58.265Z,8.60
2023-02-22T19:46:26.060Z,8.60
2023-02-22T19:48:55.324Z,8.58
2023-02-22T19:51:27.941Z,8.57
2023-02-22T19:53:58.704Z,8.55
2023-02-22T19:56:27.579Z,8.54
2023-02-22T19:58:57.140Z,8.51
2023-02-22T20:01:26.949Z,8.48
2023-02-22T20:03:59.698Z,8.43
2023-02-22T20:06:31.419Z,8.39
2023-02-22T20:08:59.651Z,8.38
2023-02-22T20:11:28.251Z,8.36
2023-02-22T20:13:56.873Z,8.33
2023-02-22T20:16:25.239Z,8.30
2023-02-22T20:18:54.437Z,8.27
2023-02-22T20:21:26.857Z,8.25
2023-02-22T20:23:59.150Z,8.21
2023-02-22T20:26:29.615Z,8.18
2023-02-22T20:28:57.764Z,8.16
2023-02-22T20:31:26.000Z,8.14
2023-02-22T20:33:56.497Z,8.12
2023-02-22T20:36:25.112Z,8.09
2023-02-22T20:38:54.917Z,8.06
2023-02-22T20:41:26.648Z,8.03
2023-02-22T20:43:56.248Z,8.00
2023-02-22T20:46:25.698Z,7.97
2023-02-22T20:48:56.383Z,7.94
2023-02-22T20:51:24.425Z,7.91
2023-02-22T20:53:52.190Z,7.88
2023-02-22T20:56:22.257Z,7.86
2023-02-22T20:58:52.169Z,7.85
2023-02-22T21:01:22.480Z,7.84
2023-02-22T21:03:53.597Z,7.83
2023-02-22T21:06:23.027Z,7.81
2023-02-22T21:08:53.574Z,7.80
2023-02-22T21:11:22.734Z,7.81
2023-02-22T21:13:52.532Z,7.81
2023-02-22T21:16:22.208Z,7.80
2023-02-22T21:18:51.412Z,7.79
2023-02-22T21:21:20.260Z,7.79
2023-02-22T21:23:50.857Z,7.78
2023-02-22T21:26:23.395Z,7.75
2023-02-22T21:28:52.575Z,7.74
2023-02-22T21:31:22.108Z,7.74
2023-02-22T21:33:51.378Z,7.72
2023-02-22T21:36:20.474Z,7.69
2023-02-22T21:38:53.095Z,7.70
2023-02-22T21:41:28.882Z,7.67
2023-02-22T21:43:59.553Z,7.66
2023-02-22T21:46:29.995Z,7.63
2023-02-22T21:48:59.397Z,7.60
2023-02-22T21:51:31.463Z,7.57
2023-02-22T21:54:01.526Z,7.54
2023-02-22T21:56:32.346Z,7.54
2023-02-22T21:59:04.948Z,7.53
2023-02-22T22:01:35.300Z,7.53
2023-02-22T22:04:04.681Z,7.51
2023-02-22T22:06:35.623Z,7.50
2023-02-22T22:09:06.133Z,7.48
2023-02-22T22:11:33.924Z,7.46
2023-02-22T22:14:03.694Z,7.43
2023-02-22T22:16:33.031Z,7.39
2023-02-22T22:19:00.825Z,7.37
2023-02-22T22:21:28.997Z,7.34
2023-02-22T22:23:57.376Z,7.32
2023-02-22T22:26:27.304Z,7.29
2023-02-22T22:28:57.432Z,7.26
2023-02-22T22:31:28.389Z,7.24
2023-02-22T22:33:57.390Z,7.21
2023-02-22T22:36:27.365Z,7.18
2023-02-22T22:38:57.449Z,7.17
2023-02-22T22:41:27.962Z,7.13
2023-02-22T22:43:56.241Z,7.11
2023-02-22T22:46:24.364Z,7.10
2023-02-22T22:48:53.543Z,7.08
2023-02-22T22:51:22.267Z,7.05
2023-02-22T22:53:51.893Z,7.02
2023-02-22T22:56:21.575Z,7.00
2023-02-22T22:58:51.318Z,6.98
2023-02-22T23:01:26.695Z,6.92
2023-02-22T23:06:39.166Z,6.87
2023-02-22T23:09:11.212Z,6.83
2023-02-22T23:11:44.333Z,6.81
2023-02-22T23:14:13.732Z,6.80
2023-02-22T23:16:42.773Z,6.78
2023-02-22T23:19:11.004Z,6.77
2023-02-22T23:21:46.484Z,6.77
2023-02-22T23:24:16.308Z,6.75
2023-02-22T23:26:48.578Z,6.74
2023-02-22T23:29:17.372Z,6.74
2023-02-22T23:31:48.429Z,6.73
2023-02-22T23:34:16.966Z,6.71
2023-02-22T23:36:46.605Z,6.71
2023-02-22T23:39:16.273Z,6.70
2023-02-22T23:41:44.167Z,6.71
2023-02-22T23:44:17.341Z,6.68
2023-02-22T23:46:48.067Z,6.68
2023-02-22T23:49:20.663Z,6.67
2023-02-22T23:51:50.165Z,6.67
2023-02-22T23:54:21.055Z,6.67
2023-02-22T23:56:56.427Z,6.65
2023-02-22T23:59:25.682Z,6.65
